createdAt,value
2022-09-17T00:01:20.798Z,5.80
2022-09-17T00:03:49.813Z,6.53
2022-09-17T00:06:16.394Z,8.13
2022-09-17T00:08:42.997Z,5.82
2022-09-17T00:11:11.488Z,8.57
2022-09-17T00:13:40.341Z,7.75
2022-09-17T00:16:07.089Z,9.77
2022-09-17T00:18:33.776Z,6.68
2022-09-17T00:21:00.290Z,7.15
2022-09-17T00:23:26.957Z,7.95
2022-09-17T00:25:53.533Z,7.80
2022-09-17T00:28:20.102Z,9.05
2022-09-17T00:30:48.097Z,9.50
2022-09-17T00:33:16.506Z,13.77
2022-09-17T00:35:43.645Z,6.72
2022-09-17T00:38:10.678Z,11.65
2022-09-17T00:40:38.098Z,7.03
2022-09-17T00:43:05.315Z,7.13
2022-09-17T00:45:32.385Z,10.45
2022-09-17T00:48:02.327Z,9.57
2022-09-17T00:50:34.709Z,10.00
2022-09-17T00:53:05.802Z,10.98
2022-09-17T00:55:36.343Z,6.50
2022-09-17T00:58:05.904Z,6.13
2022-09-17T01:00:32.991Z,10.75
2022-09-17T01:03:01.429Z,9.95
2022-09-17T01:05:33.968Z,8.98
2022-09-17T01:08:21.869Z,7.53
2022-09-17T01:11:19.342Z,7.53
2022-09-17T01:13:57.661Z,10.15
2022-09-17T01:16:34.054Z,8.90
2022-09-17T01:19:21.902Z,6.25
2022-09-17T01:21:56.846Z,8.38
2022-09-17T01:24:49.021Z,8.18
2022-09-17T01:27:47.216Z,8.75
2022-09-17T01:30:20.926Z,7.95
2022-09-17T01:32:55.139Z,4.65
2022-09-17T01:35:27.812Z,13.27
2022-09-17T01:38:01.819Z,12.13
2022-09-17T01:40:33.830Z,6.93
2022-09-17T01:43:07.361Z,6.18
2022-09-17T01:48:10.817Z,14.80
2022-09-17T01:50:41.393Z,6.07
2022-09-17T01:53:10.491Z,9.82
2022-09-17T01:55:40.462Z,10.18
2022-09-17T01:58:12.376Z,12.23
2022-09-17T02:00:42.446Z,13.02
2022-09-17T02:03:17.363Z,12.65
2022-09-17T02:05:49.603Z,14.50
2022-09-17T02:08:20.670Z,9.27
2022-09-17T02:10:50.991Z,8.55
2022-09-17T02:13:21.901Z,9.40
2022-09-17T02:15:55.486Z,16.50
2022-09-17T02:18:27.098Z,10.05
2022-09-17T02:21:02.320Z,9.10
2022-09-17T02:23:33.586Z,10.25
2022-09-17T02:26:06.946Z,11.93
2022-09-17T02:28:40.930Z,10.38
2022-09-17T02:31:07.917Z,16.70
2022-09-17T02:33:37.956Z,12.48
2022-09-17T02:36:05.248Z,8.70
2022-09-17T02:38:31.888Z,9.82
2022-09-17T02:41:06.426Z,16.13
2022-09-17T02:43:41.776Z,10.43
2022-09-17T02:46:27.434Z,12.85
2022-09-17T02:49:16.801Z,10.32
2022-09-17T02:51:52.377Z,12.70
2022-09-17T02:54:26.697Z,7.05
2022-09-17T02:57:05.026Z,9.15
2022-09-17T02:59:37.362Z,12.98
2022-09-17T03:02:07.462Z,13.05
2022-09-17T03:04:37.813Z,10.98
2022-09-17T03:07:07.083Z,8.35
2022-09-17T03:09:33.678Z,11.85
2022-09-17T03:12:00.424Z,12.23
2022-09-17T03:14:27.015Z,12.95
2022-09-17T03:16:53.607Z,4.75
2022-09-17T03:19:20.183Z,10.90
2022-09-17T03:21:48.469Z,8.75
2022-09-17T03:24:15.069Z,6.45
2022-09-17T03:26:41.673Z,12.55
2022-09-17T03:29:08.247Z,14.30
2022-09-17T03:31:34.919Z,14.65
2022-09-17T03:34:01.555Z,9.68
2022-09-17T03:36:28.066Z,9.30
2022-09-17T03:38:56.647Z,8.55
2022-09-17T03:41:24.172Z,14.55
2022-09-17T03:43:50.846Z,15.77
2022-09-17T03:46:17.808Z,12.85
2022-09-17T03:48:44.503Z,17.48
2022-09-17T03:51:11.546Z,9.27
2022-09-17T03:53:38.130Z,6.45
2022-09-17T03:56:07.142Z,12.27
2022-09-17T03:58:34.283Z,11.75
2022-09-17T04:01:01.004Z,16.10
2022-09-17T04:03:28.321Z,7.32
2022-09-17T04:05:55.589Z,8.43
2022-09-17T04:08:22.543Z,12.93
2022-09-17T04:10:49.196Z,14.18
2022-09-17T04:13:17.543Z,10.02
2022-09-17T04:15:45.127Z,11.65
2022-09-17T04:18:12.388Z,11.63
2022-09-17T04:20:39.213Z,8.25
2022-09-17T04:23:05.972Z,12.60
2022-09-17T04:25:32.914Z,13.02
2022-09-17T04:27:59.584Z,8.95
2022-09-17T04:30:27.498Z,9.75
2022-09-17T04:32:54.021Z,13.07
2022-09-17T04:35:20.698Z,12.35
2022-09-17T04:37:52.376Z,12.52
2022-09-17T04:40:19.069Z,14.63
2022-09-17T04:42:45.682Z,13.57
2022-09-17T04:45:12.276Z,9.82
2022-09-17T04:47:40.769Z,6.78
2022-09-17T04:50:07.897Z,9.55
2022-09-17T04:52:34.417Z,10.50
2022-09-17T04:55:01.031Z,7.90
2022-09-17T04:57:27.689Z,12.13
2022-09-17T04:59:54.289Z,10.43
2022-09-17T05:02:20.938Z,10.38
2022-09-17T05:04:48.960Z,12.38
2022-09-17T05:07:15.785Z,7.75
2022-09-17T05:09:42.425Z,12.68
2022-09-17T05:12:08.977Z,9.95
2022-09-17T05:14:35.608Z,12.25
2022-09-17T05:17:02.283Z,7.88
2022-09-17T05:19:28.887Z,8.90
2022-09-17T05:21:56.785Z,10.35
2022-09-17T05:24:23.378Z,17.45
2022-09-17T05:26:49.905Z,17.75
2022-09-17T05:29:16.449Z,13.15
2022-09-17T05:31:43.045Z,13.00
2022-09-17T05:34:09.777Z,10.95
2022-09-17T05:36:36.431Z,17.35
2022-09-17T05:39:04.480Z,22.48
2022-09-17T05:41:31.035Z,14.35
2022-09-17T05:43:57.576Z,18.55
2022-09-17T05:46:24.319Z,19.48
2022-09-17T05:48:50.887Z,20.20
2022-09-17T05:51:17.439Z,22.92
2022-09-17T05:53:43.976Z,20.80
2022-09-17T05:56:11.907Z,17.30
2022-09-17T05:58:38.509Z,20.90
2022-09-17T06:01:05.344Z,29.10
2022-09-17T06:03:31.871Z,25.40
2022-09-17T06:06:00.173Z,24.60
2022-09-17T06:08:28.748Z,21.02
2022-09-17T06:10:59.005Z,17.60
2022-09-17T06:13:29.743Z,22.88
2022-09-17T06:15:56.591Z,25.80
2022-09-17T06:18:23.414Z,27.55
2022-09-17T06:20:54.018Z,21.90
2022-09-17T06:23:20.783Z,23.60
2022-09-17T06:25:52.148Z,26.20
2022-09-17T06:28:18.709Z,22.95
2022-09-17T06:30:46.711Z,26.25
2022-09-17T06:33:13.302Z,20.70
2022-09-17T06:35:40.015Z,22.35
2022-09-17T06:38:06.870Z,26.85
2022-09-17T06:40:33.658Z,18.88
2022-09-17T06:43:00.536Z,13.63
2022-09-17T06:45:27.852Z,25.92
2022-09-17T06:47:55.997Z,18.92
2022-09-17T06:50:22.614Z,20.50
2022-09-17T06:52:49.503Z,22.15
2022-09-17T06:55:17.126Z,16.67
2022-09-17T06:57:44.252Z,17.90
2022-09-17T07:00:12.663Z,18.23
2022-09-17T07:02:39.238Z,16.52
2022-09-17T07:05:08.188Z,25.58
2022-09-17T07:07:34.794Z,20.10
2022-09-17T07:10:01.417Z,16.85
2022-09-17T07:12:28.036Z,15.43
2022-09-17T07:14:54.627Z,17.77
2022-09-17T07:17:21.193Z,15.25
2022-09-17T07:19:47.779Z,12.38
2022-09-17T07:22:15.857Z,22.13
2022-09-17T07:24:42.455Z,17.00
2022-09-17T07:27:08.999Z,16.40
2022-09-17T07:29:35.581Z,21.00
2022-09-17T07:32:02.602Z,13.88
2022-09-17T07:34:29.157Z,13.93
2022-09-17T07:36:55.701Z,19.10
2022-09-17T07:39:23.746Z,16.83
2022-09-17T07:41:50.320Z,15.15
2022-09-17T07:44:16.858Z,15.30
2022-09-17T07:46:43.589Z,15.52
2022-09-17T07:49:10.195Z,17.23
2022-09-17T07:51:36.935Z,15.23
2022-09-17T07:54:03.598Z,13.40
2022-09-17T08:00:00.405Z,15.18
2022-09-17T08:02:27.090Z,19.13
2022-09-17T08:04:53.758Z,18.65
2022-09-17T08:07:20.404Z,13.68
2022-09-17T08:09:46.947Z,16.38
2022-09-17T08:12:13.543Z,16.08
2022-09-17T08:14:40.166Z,15.10
2022-09-17T08:17:08.389Z,13.50
2022-09-17T08:19:35.129Z,14.68
2022-09-17T08:22:01.933Z,14.43
2022-09-17T08:24:28.534Z,16.98
2022-09-17T08:26:55.176Z,10.35
2022-09-17T08:29:21.773Z,13.18
2022-09-17T08:31:48.356Z,22.88
2022-09-17T08:34:16.411Z,13.82
2022-09-17T08:36:43.106Z,16.42
2022-09-17T08:39:09.761Z,9.88
2022-09-17T08:41:46.910Z,16.63
2022-09-17T08:44:22.740Z,14.95
2022-09-17T08:46:51.959Z,15.82
2022-09-17T08:49:30.816Z,14.13
2022-09-17T08:52:19.582Z,16.10
2022-09-17T08:54:57.135Z,15.25
2022-09-17T08:57:35.564Z,17.48
2022-09-17T09:00:07.422Z,19.85
2022-09-17T09:02:49.877Z,12.55
2022-09-17T09:05:20.641Z,17.98
2022-09-17T09:07:52.265Z,13.25
2022-09-17T09:10:23.097Z,16.75
2022-09-17T09:12:51.389Z,8.00
2022-09-17T09:15:27.648Z,9.25
2022-09-17T09:17:54.780Z,15.27
2022-09-17T09:20:28.528Z,16.20
2022-09-17T09:22:55.329Z,12.30
2022-09-17T09:25:24.888Z,15.40
2022-09-17T09:28:00.896Z,14.88
2022-09-17T09:30:36.671Z,17.20
2022-09-17T09:33:11.442Z,11.55
2022-09-17T09:35:42.223Z,17.63
2022-09-17T09:38:18.368Z,12.70
2022-09-17T09:40:51.750Z,14.00
2022-09-17T09:43:22.177Z,8.48
2022-09-17T09:46:14.434Z,13.18
2022-09-17T09:48:52.653Z,17.20
2022-09-17T09:51:31.773Z,10.05
2022-09-17T09:54:12.625Z,9.80
2022-09-17T09:56:52.832Z,14.95
2022-09-17T09:59:19.818Z,21.85
2022-09-17T10:01:46.453Z,13.27
2022-09-17T10:04:19.861Z,15.82
2022-09-17T10:06:50.206Z,10.60
2022-09-17T10:09:18.180Z,11.10
2022-09-17T10:12:00.190Z,17.48
2022-09-17T10:14:29.248Z,14.13
2022-09-17T10:17:17.207Z,11.30
2022-09-17T10:19:44.853Z,15.35
2022-09-17T10:22:29.278Z,12.73
2022-09-17T10:24:59.063Z,12.70
2022-09-17T10:27:27.111Z,13.70
2022-09-17T10:30:03.573Z,12.30
2022-09-17T10:32:30.179Z,11.15
2022-09-17T10:35:06.882Z,14.85
2022-09-17T10:37:42.025Z,10.13
2022-09-17T10:40:35.630Z,9.15
2022-09-17T10:43:22.737Z,10.25
2022-09-17T10:45:58.730Z,8.15
2022-09-17T10:48:28.573Z,10.63
2022-09-17T10:50:56.773Z,9.32
2022-09-17T10:53:27.121Z,8.68
2022-09-17T10:56:05.904Z,9.13
2022-09-17T10:58:44.013Z,12.07
2022-09-17T11:01:23.239Z,9.38
2022-09-17T11:04:19.026Z,9.60
2022-09-17T11:07:00.689Z,7.57
2022-09-17T11:09:42.793Z,9.23
2022-09-17T11:12:22.558Z,9.43
2022-09-17T11:14:54.635Z,10.13
2022-09-17T11:17:35.772Z,7.78
2022-09-17T11:20:05.781Z,6.50
2022-09-17T11:22:47.613Z,7.78
2022-09-17T11:25:33.313Z,10.32
2022-09-17T11:28:13.447Z,8.52
2022-09-17T11:30:52.702Z,9.48
2022-09-17T11:33:42.816Z,5.30
2022-09-17T11:36:16.122Z,7.15
2022-09-17T11:38:47.932Z,8.63
2022-09-17T11:41:20.461Z,7.82
2022-09-17T11:43:52.314Z,9.73
2022-09-17T11:46:22.933Z,3.20
2022-09-17T11:48:54.580Z,4.70
2022-09-17T11:51:26.775Z,4.68
2022-09-17T11:53:59.634Z,9.23
2022-09-17T11:56:32.018Z,8.98
2022-09-17T11:59:04.510Z,7.05
2022-09-17T12:01:37.778Z,6.18
2022-09-17T12:04:25.032Z,5.30
2022-09-17T12:06:59.953Z,8.18
2022-09-17T12:09:32.783Z,8.77
2022-09-17T12:12:05.792Z,5.40
2022-09-17T12:14:44.474Z,7.28
2022-09-17T12:17:17.125Z,6.43
2022-09-17T12:19:47.918Z,6.00
2022-09-17T12:22:21.113Z,7.15
2022-09-17T12:24:50.602Z,4.82
2022-09-17T12:27:30.551Z,6.82
2022-09-17T12:30:08.628Z,5.25
2022-09-17T12:32:51.710Z,11.88
2022-09-17T12:35:59.709Z,7.88
2022-09-17T12:38:35.387Z,7.40
2022-09-17T12:41:10.884Z,10.45
2022-09-17T12:44:16.440Z,8.07
2022-09-17T12:47:04.043Z,5.13
2022-09-17T12:53:14.336Z,6.53
2022-09-17T12:55:58.045Z,4.78
2022-09-17T13:01:03.999Z,5.63
2022-09-17T13:03:36.757Z,5.75
2022-09-17T13:06:23.629Z,11.30
2022-09-17T13:09:11.252Z,7.10
2022-09-17T13:12:02.918Z,7.10
2022-09-17T13:14:42.350Z,5.85
2022-09-17T13:17:19.244Z,2.90
2022-09-17T13:19:53.519Z,13.07
2022-09-17T13:22:22.872Z,5.22
2022-09-17T13:25:06.385Z,5.18
2022-09-17T13:27:33.817Z,7.85
2022-09-17T13:30:01.301Z,7.18
2022-09-17T13:32:47.260Z,5.25
2022-09-17T13:35:47.514Z,11.32
2022-09-17T13:38:14.245Z,8.63
2022-09-17T13:40:40.949Z,6.85
2022-09-17T13:43:10.291Z,4.57
2022-09-17T13:46:19.675Z,7.45
2022-09-17T13:48:56.320Z,6.38
2022-09-17T13:51:53.177Z,7.93
2022-09-17T13:54:22.560Z,10.23
2022-09-17T13:57:03.812Z,7.93
2022-09-17T13:59:30.660Z,11.27
2022-09-17T14:02:32.870Z,6.35
2022-09-17T14:05:40.937Z,8.25
2022-09-17T14:08:37.080Z,7.20
2022-09-17T14:11:36.051Z,5.57
2022-09-17T14:14:48.013Z,6.88
2022-09-17T14:17:50.838Z,3.85
2022-09-17T14:20:19.745Z,4.60
2022-09-17T14:22:55.111Z,4.13
2022-09-17T14:25:29.435Z,5.55
2022-09-17T14:27:59.863Z,2.53
2022-09-17T14:30:29.667Z,1.70
2022-09-17T14:33:03.990Z,3.35
2022-09-17T14:35:35.835Z,0.85
2022-09-17T14:38:05.975Z,1.00
2022-09-17T14:40:34.242Z,1.83
2022-09-17T14:43:02.917Z,2.40
2022-09-17T14:45:32.486Z,1.77
2022-09-17T14:48:28.179Z,3.28
2022-09-17T14:51:26.100Z,2.17
2022-09-17T14:54:19.903Z,2.35
2022-09-17T14:57:00.281Z,0.70
2022-09-17T14:59:43.417Z,2.72
2022-09-17T15:02:35.835Z,2.45
2022-09-17T15:05:17.061Z,2.33
2022-09-17T15:07:45.399Z,2.97
2022-09-17T15:10:15.481Z,1.30
2022-09-17T15:12:44.155Z,6.90
2022-09-17T15:15:18.938Z,2.63
2022-09-17T15:17:46.618Z,3.40
2022-09-17T15:20:18.308Z,7.28
2022-09-17T15:22:50.023Z,2.83
2022-09-17T15:25:21.644Z,1.92
2022-09-17T15:27:51.861Z,1.63
2022-09-17T15:30:20.123Z,1.52
2022-09-17T15:32:49.676Z,3.95
2022-09-17T15:35:22.523Z,3.33
2022-09-17T15:38:18.583Z,0.98
2022-09-17T15:40:40.349Z,2.58
2022-09-17T15:43:18.176Z,1.83
2022-09-17T15:45:45.042Z,1.45
2022-09-17T15:48:35.394Z,3.75
2022-09-17T15:51:03.492Z,4.70
2022-09-17T15:53:31.449Z,2.78
2022-09-17T15:56:06.101Z,1.90
2022-09-17T15:58:51.198Z,1.80
2022-09-17T16:01:51.005Z,11.00
2022-09-17T16:04:32.005Z,1.88
2022-09-17T16:07:23.680Z,6.72
2022-09-17T16:09:51.432Z,3.30
2022-09-17T16:12:19.584Z,2.42
2022-09-17T16:14:49.945Z,4.68
2022-09-17T16:17:25.503Z,5.18
2022-09-17T16:19:52.128Z,4.30
2022-09-17T16:22:18.715Z,6.28
2022-09-17T16:24:45.317Z,4.75
2022-09-17T16:27:16.416Z,3.58
2022-09-17T16:29:43.127Z,4.80
2022-09-17T16:32:11.416Z,4.80
2022-09-17T16:34:38.121Z,6.38
2022-09-17T16:37:04.791Z,6.18
2022-09-17T16:39:31.474Z,3.65
2022-09-17T16:41:58.068Z,3.80
2022-09-17T16:44:24.666Z,4.28
2022-09-17T16:46:51.325Z,3.22
2022-09-17T16:49:19.387Z,3.17
2022-09-17T16:51:46.028Z,4.57
2022-09-17T16:54:12.813Z,2.38
2022-09-17T16:56:39.444Z,1.90
2022-09-17T16:59:06.073Z,4.25
2022-09-17T17:01:32.630Z,2.90
2022-09-17T17:03:59.401Z,5.75
2022-09-17T17:06:27.432Z,3.33
2022-09-17T17:08:53.970Z,4.55
2022-09-17T17:11:21.659Z,4.82
2022-09-17T17:13:48.364Z,3.85
2022-09-17T17:16:15.634Z,3.97
2022-09-17T17:18:42.998Z,5.75
2022-09-17T17:21:12.846Z,4.60
2022-09-17T17:23:40.985Z,5.00
2022-09-17T17:26:07.701Z,4.18
2022-09-17T17:28:35.275Z,8.57
2022-09-17T17:31:02.147Z,6.03
2022-09-17T17:33:29.323Z,18.88
2022-09-17T17:36:00.397Z,5.53
2022-09-17T17:38:29.671Z,4.68
2022-09-17T17:41:05.643Z,5.35
2022-09-17T17:43:32.418Z,3.75
2022-09-17T17:45:59.069Z,3.47
2022-09-17T17:48:25.776Z,4.70
2022-09-17T17:50:56.560Z,4.80
2022-09-17T17:53:23.582Z,5.88
2022-09-17T17:56:00.541Z,4.68
2022-09-17T17:58:29.490Z,8.85
2022-09-17T18:00:56.580Z,4.97
2022-09-17T18:03:23.787Z,4.55
2022-09-17T18:05:51.307Z,4.78
2022-09-17T18:08:17.981Z,5.65
2022-09-17T18:10:51.607Z,5.00
2022-09-17T18:13:18.307Z,3.05
2022-09-17T18:15:52.353Z,12.05
2022-09-17T18:18:18.984Z,4.40
2022-09-17T18:20:45.605Z,4.78
2022-09-17T18:23:12.287Z,4.80
2022-09-17T18:25:38.912Z,4.95
2022-09-17T18:28:05.588Z,6.95
2022-09-17T18:30:32.290Z,2.28
2022-09-17T18:33:00.352Z,3.97
2022-09-17T18:35:26.940Z,7.43
2022-09-17T18:37:53.561Z,8.68
2022-09-17T18:40:20.216Z,7.70
2022-09-17T18:42:48.535Z,4.65
2022-09-17T18:45:15.474Z,5.32
2022-09-17T18:47:42.133Z,5.13
2022-09-17T18:50:10.260Z,6.22
2022-09-17T18:52:36.890Z,4.57
2022-09-17T18:55:03.699Z,3.55
2022-09-17T18:57:30.318Z,6.05
2022-09-17T18:59:57.210Z,5.25
2022-09-17T19:02:24.214Z,5.30
2022-09-17T19:04:51.075Z,3.88
2022-09-17T19:07:19.541Z,3.35
2022-09-17T19:09:46.277Z,3.95
2022-09-17T19:12:13.170Z,5.38
2022-09-17T19:14:40.077Z,2.65
2022-09-17T19:17:06.968Z,3.25
2022-09-17T19:19:33.790Z,3.10
2022-09-17T19:22:00.417Z,4.40
2022-09-17T19:24:28.557Z,5.07
2022-09-17T19:26:55.233Z,2.67
2022-09-17T19:29:21.882Z,6.82
2022-09-17T19:31:48.714Z,3.88
2022-09-17T19:34:15.446Z,6.90
2022-09-17T19:36:42.035Z,3.42
2022-09-17T19:39:08.795Z,3.97
2022-09-17T19:41:36.887Z,4.80
2022-09-17T19:44:03.645Z,3.50
2022-09-17T19:46:30.400Z,7.07
2022-09-17T19:48:57.518Z,5.20
2022-09-17T19:51:25.878Z,6.00
2022-09-17T19:53:52.849Z,5.53
2022-09-17T19:56:21.933Z,6.95
2022-09-17T19:58:50.274Z,11.82
2022-09-17T20:01:17.540Z,7.18
2022-09-17T20:03:45.105Z,6.13
2022-09-17T20:06:13.828Z,6.10
2022-09-17T20:08:46.848Z,5.95
2022-09-17T20:11:14.770Z,8.80
2022-09-17T20:13:41.402Z,5.72
2022-09-17T20:16:11.671Z,10.80
2022-09-17T20:18:38.336Z,5.30
2022-09-17T20:21:08.612Z,5.90
2022-09-17T20:23:35.377Z,8.13
2022-09-17T20:26:02.152Z,6.55
2022-09-17T20:28:29.012Z,7.97
2022-09-17T20:31:03.315Z,7.63
2022-09-17T20:33:31.457Z,9.95
2022-09-17T20:35:59.224Z,5.55
2022-09-17T20:39:09.941Z,5.45
2022-09-17T20:41:14.280Z,6.63
2022-09-17T20:43:42.718Z,6.47
2022-09-17T20:46:10.755Z,7.22
2022-09-17T20:48:39.573Z,5.90
2022-09-17T20:51:07.959Z,7.30
2022-09-17T20:53:36.320Z,5.05
2022-09-17T20:56:05.061Z,6.00
2022-09-17T20:58:33.439Z,4.95
2022-09-17T21:01:06.325Z,9.32
2022-09-17T21:03:32.918Z,5.15
2022-09-17T21:06:01.160Z,6.63
2022-09-17T21:08:28.335Z,6.72
2022-09-17T21:10:54.972Z,8.65
2022-09-17T21:13:21.641Z,5.82
2022-09-17T21:15:55.598Z,5.45
2022-09-17T21:18:22.173Z,6.63
2022-09-17T21:20:48.779Z,6.85
2022-09-17T21:23:17.064Z,9.20
2022-09-17T21:25:43.673Z,6.72
2022-09-17T21:28:10.239Z,6.90
2022-09-17T21:30:36.879Z,4.85
2022-09-17T21:33:03.712Z,11.38
2022-09-17T21:35:30.287Z,8.75
2022-09-17T21:37:56.802Z,6.35
2022-09-17T21:40:24.939Z,8.02
2022-09-17T21:42:51.617Z,5.80
2022-09-17T21:45:18.210Z,7.85
2022-09-17T21:47:44.831Z,5.70
2022-09-17T21:50:11.445Z,5.30
2022-09-17T21:52:38.039Z,4.93
2022-09-17T21:55:05.460Z,6.30
2022-09-17T21:57:33.360Z,8.85
2022-09-17T21:59:59.926Z,6.07
2022-09-17T22:02:26.546Z,7.20
2022-09-17T22:04:53.044Z,8.75
2022-09-17T22:07:19.628Z,5.93
2022-09-17T22:09:46.150Z,4.85
2022-09-17T22:12:12.799Z,9.85
2022-09-17T22:14:40.800Z,4.57
2022-09-17T22:17:07.488Z,5.68
2022-09-17T22:19:34.383Z,5.30
2022-09-17T22:22:01.039Z,7.13
2022-09-17T22:24:27.904Z,5.28
2022-09-17T22:26:57.941Z,8.65
2022-09-17T22:29:26.321Z,6.07
2022-09-17T22:31:54.224Z,9.18
2022-09-17T22:34:22.543Z,7.63
2022-09-17T22:36:49.127Z,7.10
2022-09-17T22:39:15.738Z,6.88
2022-09-17T22:41:42.578Z,6.03
2022-09-17T22:44:12.467Z,6.47
2022-09-17T22:46:39.746Z,7.45
2022-09-17T22:49:08.977Z,5.47
2022-09-17T22:51:36.052Z,5.82
2022-09-17T22:54:02.909Z,7.10
2022-09-17T22:56:29.878Z,5.60
2022-09-17T22:58:57.581Z,6.05
2022-09-17T23:01:26.478Z,7.82
2022-09-17T23:03:53.188Z,4.38
2022-09-17T23:06:23.499Z,5.57
2022-09-17T23:08:50.192Z,4.95
2022-09-17T23:11:19.160Z,3.92
2022-09-17T23:13:46.458Z,19.05
2022-09-17T23:16:13.729Z,5.18
2022-09-17T23:18:40.686Z,5.60
2022-09-17T23:21:09.855Z,7.03
2022-09-17T23:23:37.829Z,4.88
2022-09-17T23:26:06.339Z,3.88
2022-09-17T23:28:34.610Z,5.97
2022-09-17T23:31:06.670Z,7.07
2022-09-17T23:33:34.048Z,6.38
2022-09-17T23:36:03.844Z,6.53
2022-09-17T23:38:30.534Z,5.38
2022-09-17T23:41:07.501Z,5.55
2022-09-17T23:43:34.126Z,3.53
2022-09-17T23:46:00.773Z,4.28
2022-09-17T23:48:27.512Z,3.35
2022-09-17T23:50:54.083Z,2.72
2022-09-17T23:53:20.861Z,13.23
2022-09-17T23:55:48.274Z,4.60
2022-09-17T23:58:16.637Z,4.25
